Time;durP1;ratioP1;P1;durP2;ratioP2;P2;SDS_P1;SDS_P2;PMS_P1;PMS_P2;Temp;Humidity;BMP_temperature;BMP_pressure;BME280_temperature;BME280_humidity;BME280_pressure;Samples;Min_cycle;Max_cycle;Signal;HPM_P1;HPM_P2
2022/04/13 00:00:15;;;;;;;3.95;1.80;;;14.50;99.90;;;;;;5093270;28;20024;-78
2022/04/13 00:02:41;;;;;;;4.82;1.73;;;14.50;99.90;;;;;;5092942;28;20016;-78
2022/04/13 00:05:09;;;;;;;3.10;1.83;;;14.50;99.90;;;;;;5092446;28;20115;-78
2022/04/13 00:07:35;;;;;;;4.60;1.80;;;14.50;99.90;;;;;;5092875;28;20063;-78
2022/04/13 00:10:00;;;;;;;6.80;2.08;;;14.50;99.90;;;;;;5092094;28;20048;-78
2022/04/13 00:12:26;;;;;;;5.57;1.90;;;14.40;99.90;;;;;;5094374;28;20028;-78
2022/04/13 00:14:52;;;;;;;6.57;2.35;;;14.40;99.90;;;;;;5095698;28;20202;-78
2022/04/13 00:17:17;;;;;;;4.47;2.13;;;14.40;99.90;;;;;;5097209;28;20514;-78
2022/04/13 00:19:43;;;;;;;4.07;2.15;;;14.50;99.90;;;;;;5095511;28;20403;-78
2022/04/13 00:22:09;;;;;;;5.43;2.60;;;14.40;99.90;;;;;;5096070;28;20016;-78
2022/04/13 00:24:34;;;;;;;5.82;2.70;;;14.50;99.90;;;;;;5095541;28;20016;-78
2022/04/13 00:27:00;;;;;;;3.35;2.67;;;14.60;99.90;;;;;;5096246;28;20028;-78
2022/04/13 00:29:29;;;;;;;6.25;3.05;;;14.70;99.90;;;;;;5095784;28;20516;-78
2022/04/13 00:31:57;;;;;;;5.80;2.97;;;14.70;99.90;;;;;;5095859;28;20425;-78
2022/04/13 00:34:22;;;;;;;5.13;2.63;;;14.80;99.90;;;;;;5096321;28;20360;-78
2022/04/13 00:36:48;;;;;;;7.72;3.38;;;14.90;99.90;;;;;;5096386;28;20082;-78
2022/04/13 00:39:14;;;;;;;6.50;3.35;;;14.90;99.90;;;;;;5096140;28;20016;-78
2022/04/13 00:41:39;;;;;;;7.10;3.28;;;14.90;99.90;;;;;;5095589;28;20028;-78
2022/04/13 00:44:10;;;;;;;7.93;3.35;;;14.90;99.90;;;;;;5096219;28;20058;-78
2022/04/13 00:46:36;;;;;;;7.43;3.50;;;14.90;99.90;;;;;;5095648;28;20028;-77
2022/04/13 00:49:06;;;;;;;8.05;3.08;;;14.90;99.90;;;;;;5096199;28;20723;-78
2022/04/13 00:51:32;;;;;;;6.10;2.97;;;14.90;99.90;;;;;;5096082;28;20027;-78
2022/04/13 00:53:59;;;;;;;6.32;2.92;;;14.90;99.90;;;;;;5095829;28;20023;-78
2022/04/13 00:56:29;;;;;;;6.68;2.72;;;14.90;99.90;;;;;;5095511;28;20047;-77
2022/04/13 00:59:14;;;;;;;7.95;2.70;;;14.80;99.90;;;;;;5095132;28;20020;-78
2022/04/13 01:01:47;;;;;;;4.93;2.88;;;14.70;99.90;;;;;;5095539;28;20085;-78
2022/04/13 01:04:13;;;;;;;7.22;3.20;;;14.60;99.90;;;;;;5096793;28;20019;-78
2022/04/13 01:06:40;;;;;;;6.45;2.80;;;14.60;99.90;;;;;;5096414;28;20020;-78
2022/04/13 01:09:06;;;;;;;4.47;2.72;;;14.60;99.90;;;;;;5095453;28;20526;-77
2022/04/13 01:11:32;;;;;;;4.05;2.50;;;14.60;99.90;;;;;;5096614;28;20027;-78
2022/04/13 01:13:58;;;;;;;5.82;2.63;;;14.60;99.90;;;;;;5096319;28;20020;-78
2022/04/13 01:16:25;;;;;;;5.35;3.10;;;14.50;99.90;;;;;;5095836;28;20038;-78
2022/04/13 01:18:52;;;;;;;4.85;2.88;;;14.50;99.90;;;;;;5096374;28;20016;-78
2022/04/13 01:21:19;;;;;;;6.18;2.88;;;14.60;99.90;;;;;;5095500;28;20024;-78
2022/04/13 01:23:50;;;;;;;4.35;2.67;;;14.60;99.90;;;;;;5095331;28;20150;-77
2022/04/13 01:26:16;;;;;;;5.88;2.70;;;14.60;99.90;;;;;;5096676;28;20028;-78
2022/04/13 01:28:42;;;;;;;8.45;3.08;;;14.60;99.90;;;;;;5095962;28;20031;-78
2022/04/13 01:31:08;;;;;;;3.85;2.58;;;14.50;99.90;;;;;;5095831;28;20020;-78
2022/04/13 01:33:35;;;;;;;4.53;2.50;;;14.60;99.90;;;;;;5095240;28;20020;-78
2022/04/13 01:36:01;;;;;;;5.88;2.67;;;14.60;99.90;;;;;;5094819;28;20058;-78
2022/04/13 01:38:31;;;;;;;5.93;2.70;;;14.50;99.90;;;;;;5095518;28;20073;-78
2022/04/13 01:40:57;;;;;;;4.57;2.85;;;14.50;99.90;;;;;;5094533;28;20024;-78
2022/04/13 01:43:24;;;;;;;5.25;2.75;;;14.50;99.90;;;;;;5095155;28;20445;-78
2022/04/13 01:45:50;;;;;;;5.82;2.67;;;14.50;99.90;;;;;;5094583;28;20023;-78
2022/04/13 01:48:19;;;;;;;7.18;2.90;;;14.50;99.90;;;;;;5095224;28;20077;-78
2022/04/13 01:50:45;;;;;;;5.32;2.83;;;14.40;99.90;;;;;;5094519;28;20020;-78
2022/04/13 01:53:11;;;;;;;5.78;2.85;;;14.40;99.90;;;;;;5094903;28;20058;-78
2022/04/13 01:55:36;;;;;;;6.63;3.00;;;14.40;99.90;;;;;;5095552;28;20048;-78
2022/04/13 01:58:02;;;;;;;5.45;3.15;;;14.40;99.90;;;;;;5095349;28;20043;-78
2022/04/13 02:00:28;;;;;;;4.07;2.63;;;14.40;99.90;;;;;;5094931;28;20505;-78
2022/04/13 02:02:53;;;;;;;6.30;3.00;;;14.40;99.90;;;;;;5094214;28;20043;-78
2022/04/13 02:05:19;;;;;;;7.05;2.80;;;14.30;99.90;;;;;;5094844;28;20111;-78
2022/04/13 02:07:45;;;;;;;6.00;2.58;;;14.30;99.90;;;;;;5095603;28;20105;-78
2022/04/13 02:10:10;;;;;;;4.40;2.42;;;14.30;99.90;;;;;;5095775;28;20016;-78
2022/04/13 02:12:37;;;;;;;6.35;2.95;;;14.30;99.90;;;;;;5094370;28;20020;-78
2022/04/13 02:15:06;;;;;;;4.80;2.63;;;14.30;99.90;;;;;;5093807;28;20020;-78
2022/04/13 02:17:32;;;;;;;6.70;3.15;;;14.30;99.90;;;;;;5094401;28;20465;-78
2022/04/13 02:19:57;;;;;;;3.50;2.38;;;14.30;99.90;;;;;;5094896;28;20069;-78
2022/04/13 02:22:23;;;;;;;6.43;2.80;;;14.30;99.90;;;;;;5095276;28;20421;-77
2022/04/13 02:24:49;;;;;;;6.65;3.22;;;14.30;99.90;;;;;;5093912;28;20024;-78
2022/04/13 02:27:14;;;;;;;5.18;2.58;;;14.20;99.90;;;;;;5094229;28;20032;-78
2022/04/13 02:29:44;;;;;;;9.50;2.85;;;14.10;99.90;;;;;;5094096;28;20472;-78
2022/04/13 02:32:10;;;;;;;6.45;2.33;;;14.10;99.90;;;;;;5095280;28;20035;-78
2022/04/13 02:34:35;;;;;;;4.35;2.33;;;14.10;99.90;;;;;;5095057;28;20024;-78
2022/04/13 02:37:01;;;;;;;5.10;2.40;;;14.10;99.90;;;;;;5092398;28;20048;-78
2022/04/13 02:39:27;;;;;;;4.25;2.42;;;14.00;99.90;;;;;;5095113;28;20020;-78
2022/04/13 02:41:52;;;;;;;5.53;2.47;;;14.00;99.90;;;;;;5093482;28;20030;-78
2022/04/13 02:44:18;;;;;;;8.05;2.58;;;13.90;99.90;;;;;;5095150;28;20028;-78
2022/04/13 02:46:44;;;;;;;3.90;2.50;;;13.90;99.90;;;;;;5094425;28;20468;-78
2022/04/13 02:49:11;;;;;;;6.78;2.70;;;13.80;99.90;;;;;;5094481;28;20020;-78
2022/04/13 02:51:36;;;;;;;4.60;2.67;;;13.70;99.90;;;;;;5093814;28;20020;-78
2022/04/13 02:54:03;;;;;;;5.22;2.38;;;13.60;99.90;;;;;;5094374;28;20024;-78
2022/04/13 02:56:28;;;;;;;5.05;2.58;;;13.60;99.90;;;;;;5093355;28;20044;-78
2022/04/13 02:58:54;;;;;;;3.80;2.10;;;13.50;99.90;;;;;;5092950;28;20074;-78
2022/04/13 03:01:19;;;;;;;7.72;2.50;;;13.50;99.90;;;;;;5094443;28;20373;-78
2022/04/13 03:03:45;;;;;;;5.28;2.60;;;13.50;99.90;;;;;;5092942;28;20032;-78
2022/04/13 03:06:10;;;;;;;3.30;2.15;;;13.40;99.90;;;;;;5093790;28;20024;-78
2022/04/13 03:08:36;;;;;;;4.05;2.60;;;13.40;99.90;;;;;;5093646;28;20024;-78
2022/04/13 03:11:03;;;;;;;5.80;2.38;;;13.40;99.90;;;;;;5092803;28;20020;-78
2022/04/13 03:13:28;;;;;;;5.85;3.00;;;13.40;99.90;;;;;;5093550;28;20062;-78
2022/04/13 03:15:54;;;;;;;5.40;2.50;;;13.40;99.90;;;;;;5094075;28;20023;-78
2022/04/13 03:18:19;;;;;;;4.65;2.53;;;13.30;99.90;;;;;;5094490;28;20031;-78
2022/04/13 03:20:45;;;;;;;3.90;2.45;;;13.20;99.90;;;;;;5093826;28;20023;-77
2022/04/13 03:23:10;;;;;;;7.78;2.53;;;13.20;99.90;;;;;;5094394;28;20024;-78
2022/04/13 03:25:36;;;;;;;5.72;2.60;;;13.20;99.90;;;;;;5093073;28;20036;-78
2022/04/13 03:28:02;;;;;;;6.65;2.38;;;13.10;99.90;;;;;;5092804;28;20030;-78
2022/04/13 03:30:28;;;;;;;8.48;2.50;;;13.10;99.90;;;;;;5093371;28;20020;-77
2022/04/13 03:32:53;;;;;;;4.80;2.67;;;13.10;99.90;;;;;;5092528;28;20024;-77
2022/04/13 03:35:19;;;;;;;3.38;2.15;;;13.00;99.90;;;;;;5094056;28;20452;-78
2022/04/13 03:37:45;;;;;;;5.32;2.60;;;13.00;99.90;;;;;;5093437;28;20042;-77
2022/04/13 03:40:11;;;;;;;9.20;2.85;;;12.80;99.90;;;;;;5092906;28;20027;-78
2022/04/13 03:42:38;;;;;;;7.57;3.15;;;12.80;99.90;;;;;;5092985;28;20020;-78
2022/04/13 03:45:09;;;;;;;4.55;2.40;;;12.70;99.90;;;;;;5093520;28;20069;-78
2022/04/13 03:47:35;;;;;;;5.05;2.47;;;12.70;99.90;;;;;;5093825;28;20028;-78
2022/04/13 03:50:00;;;;;;;6.68;2.42;;;12.60;99.90;;;;;;5093275;28;20020;-77
2022/04/13 03:52:26;;;;;;;6.65;2.80;;;12.50;99.90;;;;;;5093782;28;20089;-77
2022/04/13 03:54:52;;;;;;;5.07;2.58;;;12.50;99.90;;;;;;5092007;28;20475;-78
2022/04/13 03:57:19;;;;;;;4.70;2.13;;;12.50;99.90;;;;;;5092504;28;20127;-76
2022/04/13 03:59:45;;;;;;;4.03;2.20;;;12.40;99.90;;;;;;5092467;28;20031;-77
2022/04/13 04:02:11;;;;;;;4.43;2.33;;;12.30;99.90;;;;;;5092108;28;20031;-77
2022/04/13 04:04:36;;;;;;;5.50;2.45;;;12.30;99.90;;;;;;5092581;28;20028;-78
2022/04/13 04:07:02;;;;;;;5.20;2.60;;;12.20;99.90;;;;;;5093098;28;20106;-77
2022/04/13 04:09:28;;;;;;;7.88;2.70;;;12.20;99.90;;;;;;5092469;28;20070;-77
2022/04/13 04:11:53;;;;;;;4.45;2.00;;;12.20;99.90;;;;;;5092009;28;20052;-78
2022/04/13 04:14:19;;;;;;;4.13;2.35;;;12.20;99.90;;;;;;5092364;28;20030;-77
2022/04/13 04:16:45;;;;;;;8.82;2.45;;;12.30;99.90;;;;;;5092501;28;20492;-78
2022/04/13 04:19:10;;;;;;;3.05;2.20;;;12.20;99.90;;;;;;5091881;28;20024;-78
2022/04/13 04:21:36;;;;;;;5.28;2.30;;;12.20;99.90;;;;;;5092195;28;20058;-78
2022/04/13 04:24:02;;;;;;;5.80;2.03;;;12.20;99.90;;;;;;5093203;28;20027;-77
2022/04/13 04:26:28;;;;;;;5.03;2.35;;;12.20;99.90;;;;;;5092382;28;20024;-78
2022/04/13 04:28:53;;;;;;;7.22;2.72;;;12.10;99.90;;;;;;5092006;28;20028;-78
2022/04/13 04:31:49;;;;;;;4.38;2.25;;;12.10;99.90;;;;;;5093635;28;20023;-78
2022/04/13 04:34:05;;;;;;;4.93;2.45;;;12.20;99.90;;;;;;5093063;28;20040;-78
2022/04/13 04:36:30;;;;;;;4.28;2.28;;;12.10;99.90;;;;;;5093375;28;20060;-77
2022/04/13 04:38:56;;;;;;;3.58;2.15;;;12.00;99.90;;;;;;5092142;28;20102;-78
2022/04/13 04:41:21;;;;;;;6.93;2.60;;;12.00;99.90;;;;;;5092364;28;20020;-78
2022/04/13 04:43:47;;;;;;;3.75;2.33;;;12.00;99.90;;;;;;5092221;28;20077;-77
2022/04/13 04:46:12;;;;;;;6.95;2.85;;;11.90;99.90;;;;;;5092806;28;20031;-78
2022/04/13 04:48:42;;;;;;;5.60;2.20;;;12.00;99.90;;;;;;5092410;28;20538;-78
2022/04/13 04:51:08;;;;;;;4.63;2.22;;;12.00;99.90;;;;;;5091782;28;20024;-78
2022/04/13 04:53:34;;;;;;;6.35;2.42;;;12.00;99.90;;;;;;5093223;28;20035;-78
2022/04/13 04:56:00;;;;;;;3.60;2.33;;;12.00;99.90;;;;;;5092221;28;20044;-78
2022/04/13 04:58:26;;;;;;;3.17;2.17;;;12.00;99.90;;;;;;5092056;28;20487;-77
2022/04/13 05:00:53;;;;;;;4.82;2.40;;;12.00;99.90;;;;;;5096075;28;20027;-78
2022/04/13 05:03:18;;;;;;;5.40;2.38;;;12.00;99.90;;;;;;5096914;28;20514;-78
2022/04/13 05:05:44;;;;;;;6.60;2.35;;;12.00;99.90;;;;;;5096410;28;20493;-78
2022/04/13 05:08:10;;;;;;;5.60;2.78;;;12.00;99.90;;;;;;5095027;28;20035;-78
2022/04/13 05:10:35;;;;;;;5.47;2.90;;;11.90;99.90;;;;;;5096403;28;20039;-77
2022/04/13 05:13:02;;;;;;;5.65;2.80;;;11.90;99.90;;;;;;5094989;28;20028;-78
2022/04/13 05:15:28;;;;;;;3.88;2.78;;;11.70;99.90;;;;;;5095227;28;20020;-77
2022/04/13 05:17:54;;;;;;;3.88;2.40;;;11.70;99.90;;;;;;5094114;28;20065;-78
2022/04/13 05:20:20;;;;;;;4.75;2.88;;;11.70;99.90;;;;;;5095513;28;20109;-77
2022/04/13 05:22:46;;;;;;;8.73;2.78;;;11.70;99.90;;;;;;5096481;28;20070;-76
2022/04/13 05:25:14;;;;;;;7.72;2.65;;;11.70;99.90;;;;;;5095537;28;20024;-78
2022/04/13 05:27:40;;;;;;;6.00;2.50;;;11.70;99.90;;;;;;5096251;28;20032;-78
2022/04/13 05:30:07;;;;;;;4.90;2.40;;;11.70;99.90;;;;;;5094397;28;20031;-77
2022/04/13 05:32:53;;;;;;;7.38;2.58;;;11.90;99.90;;;;;;5094861;28;20055;-77
2022/04/13 05:35:19;;;;;;;4.28;2.47;;;11.90;99.90;;;;;;5094802;28;20111;-78
2022/04/13 05:37:45;;;;;;;5.65;2.53;;;11.90;99.90;;;;;;5094596;28;20081;-77
2022/04/13 05:40:11;;;;;;;4.57;2.30;;;11.90;99.90;;;;;;5095476;28;20020;-77
2022/04/13 05:42:37;;;;;;;3.95;2.25;;;12.00;99.90;;;;;;5095781;28;20090;-77
2022/04/13 05:45:03;;;;;;;3.10;2.20;;;12.10;99.90;;;;;;5093968;28;20046;-78
2022/04/13 05:47:29;;;;;;;6.43;2.55;;;12.20;99.90;;;;;;5094344;28;20024;-78
2022/04/13 05:49:55;;;;;;;9.32;2.30;;;12.20;99.90;;;;;;5095147;28;20028;-78
2022/04/13 05:52:20;;;;;;;5.97;2.40;;;12.20;99.90;;;;;;5095726;28;20028;-78
2022/04/13 05:54:46;;;;;;;8.10;3.10;;;12.20;99.90;;;;;;5095150;28;20016;-77
2022/04/13 05:57:12;;;;;;;6.25;3.10;;;12.30;99.90;;;;;;5094368;28;20055;-78
2022/04/13 05:59:38;;;;;;;5.72;2.97;;;12.40;99.90;;;;;;5094460;28;20020;-78
2022/04/13 06:02:04;;;;;;;8.43;3.03;;;12.50;99.90;;;;;;5093633;28;20031;-77
2022/04/13 06:04:30;;;;;;;6.65;2.83;;;12.70;99.90;;;;;;5094427;28;20028;-77
2022/04/13 06:06:56;;;;;;;6.78;3.40;;;12.70;99.90;;;;;;5093543;28;20368;-77
2022/04/13 06:09:23;;;;;;;5.60;3.20;;;12.80;99.90;;;;;;5094123;28;20449;-77
2022/04/13 06:11:49;;;;;;;9.88;4.72;;;12.90;99.90;;;;;;5093911;28;20074;-77
2022/04/13 06:14:15;;;;;;;11.48;5.30;;;13.00;99.90;;;;;;5094900;28;20024;-78
2022/04/13 06:16:40;;;;;;;10.65;5.10;;;13.10;99.90;;;;;;5094174;28;20372;-78
2022/04/13 06:19:06;;;;;;;14.30;6.18;;;13.20;99.90;;;;;;5093573;28;20532;-77
2022/04/13 06:21:32;;;;;;;19.60;6.50;;;13.20;99.90;;;;;;5093543;28;20024;-78
2022/04/13 06:23:57;;;;;;;24.13;7.38;;;13.30;99.90;;;;;;5093323;28;20026;-78
2022/04/13 06:26:23;;;;;;;23.52;7.75;;;13.30;99.90;;;;;;5095057;28;20032;-78
2022/04/13 06:28:49;;;;;;;14.52;6.20;;;13.40;99.90;;;;;;5093872;28;20050;-78
2022/04/13 06:31:14;;;;;;;13.75;4.20;;;13.50;99.90;;;;;;5093266;28;20032;-78
2022/04/13 06:33:40;;;;;;;9.80;3.60;;;13.60;99.90;;;;;;5093581;28;20523;-78
2022/04/13 06:36:06;;;;;;;9.38;3.60;;;13.60;99.90;;;;;;5094248;28;20437;-78
2022/04/13 06:38:32;;;;;;;15.73;3.58;;;13.70;99.90;;;;;;5093489;28;20365;-77
2022/04/13 06:40:58;;;;;;;12.80;3.88;;;13.70;99.90;;;;;;5093131;28;20102;-78
2022/04/13 06:43:24;;;;;;;13.35;3.35;;;13.70;99.90;;;;;;5093690;28;20432;-77
2022/04/13 06:45:49;;;;;;;8.07;3.10;;;13.70;99.90;;;;;;5094650;28;20131;-78
2022/04/13 06:48:15;;;;;;;13.88;3.33;;;13.70;99.90;;;;;;5092883;28;20020;-77
2022/04/13 06:50:40;;;;;;;9.90;3.47;;;13.70;99.90;;;;;;5094514;28;20099;-78
2022/04/13 06:53:06;;;;;;;7.53;3.22;;;13.80;99.90;;;;;;5092731;28;20020;-77
2022/04/13 06:55:32;;;;;;;8.73;3.03;;;13.80;99.90;;;;;;5092916;28;20040;-78
2022/04/13 06:57:57;;;;;;;8.75;3.60;;;13.80;99.90;;;;;;5092494;28;20040;-78
2022/04/13 07:00:23;;;;;;;10.00;2.95;;;13.80;99.90;;;;;;5093483;28;20024;-78
2022/04/13 07:02:48;;;;;;;10.68;3.28;;;13.80;99.90;;;;;;5094278;28;20391;-78
2022/04/13 07:05:14;;;;;;;14.90;3.60;;;13.80;99.90;;;;;;5091059;28;20149;-77
2022/04/13 07:07:41;;;;;;;11.40;3.72;;;13.90;99.90;;;;;;5086066;28;20028;-78
2022/04/13 07:10:07;;;;;;;11.45;3.58;;;13.90;99.90;;;;;;5089146;28;20040;-78
2022/04/13 07:12:38;;;;;;;12.07;3.75;;;14.00;99.90;;;;;;5088846;28;20035;-78
2022/04/13 07:15:04;;;;;;;11.90;3.45;;;14.00;99.90;;;;;;5089513;28;20369;-78
2022/04/13 07:17:30;;;;;;;8.70;3.40;;;14.00;99.90;;;;;;5091176;28;20040;-78
2022/04/13 07:19:55;;;;;;;8.32;3.20;;;14.10;99.90;;;;;;5091114;28;20031;-78
2022/04/13 07:22:21;;;;;;;8.80;2.80;;;14.10;99.90;;;;;;5090053;28;20055;-78
2022/04/13 07:24:47;;;;;;;11.73;3.17;;;14.20;99.90;;;;;;5089639;28;20024;-78
2022/04/13 07:27:12;;;;;;;7.72;3.45;;;14.20;99.90;;;;;;5090488;28;20038;-78
2022/04/13 07:29:38;;;;;;;11.50;3.83;;;14.30;99.90;;;;;;5089663;28;20024;-77
2022/04/13 07:32:06;;;;;;;7.80;3.33;;;14.40;99.90;;;;;;5089660;28;20026;-78
2022/04/13 07:34:32;;;;;;;9.70;3.38;;;14.40;99.90;;;;;;5089616;28;20372;-77
2022/04/13 07:36:58;;;;;;;10.73;3.47;;;14.40;99.90;;;;;;5079155;28;20031;-78
2022/04/13 07:39:24;;;;;;;13.77;3.78;;;14.50;99.90;;;;;;5090838;28;20028;-78
2022/04/13 07:41:50;;;;;;;10.93;2.97;;;14.50;99.90;;;;;;5089880;28;20036;-78
2022/04/13 07:44:15;;;;;;;7.15;2.97;;;14.50;99.90;;;;;;5089942;28;20024;-78
2022/04/13 07:46:41;;;;;;;6.93;3.08;;;14.70;99.90;;;;;;5090629;28;20035;-78
2022/04/13 07:49:08;;;;;;;8.10;3.03;;;14.70;99.90;;;;;;5088535;28;20031;-78
2022/04/13 07:51:34;;;;;;;7.00;3.05;;;14.80;99.90;;;;;;5089019;28;20373;-78
2022/04/13 07:54:01;;;;;;;9.02;2.38;;;14.80;99.90;;;;;;5088320;28;20367;-78
2022/04/13 07:56:27;;;;;;;5.43;2.40;;;14.90;99.90;;;;;;5088376;28;20059;-78
2022/04/13 07:58:53;;;;;;;6.10;2.88;;;15.00;99.90;;;;;;5088902;28;20024;-78
2022/04/13 08:01:19;;;;;;;5.30;2.50;;;15.10;99.90;;;;;;5087755;28;20811;-77
2022/04/13 08:03:45;;;;;;;7.82;2.65;;;15.30;99.90;;;;;;5088707;28;20023;-78
2022/04/13 08:06:11;;;;;;;3.72;2.20;;;15.30;99.90;;;;;;5088162;28;20035;-77
2022/04/13 08:08:38;;;;;;;5.38;2.20;;;15.30;99.90;;;;;;5088279;28;20028;-78
2022/04/13 08:11:04;;;;;;;5.32;2.75;;;15.40;99.90;;;;;;5089883;28;20016;-77
2022/04/13 08:13:30;;;;;;;7.05;2.38;;;15.50;99.90;;;;;;5089221;28;20025;-78
2022/04/13 08:15:56;;;;;;;6.38;2.10;;;15.50;99.70;;;;;;5089072;28;20035;-77
2022/04/13 08:18:21;;;;;;;8.18;2.58;;;15.40;99.70;;;;;;5088140;28;20373;-78
2022/04/13 08:20:47;;;;;;;11.43;2.08;;;15.50;99.80;;;;;;5089268;28;20028;-78
2022/04/13 08:23:12;;;;;;;6.50;2.17;;;15.50;99.80;;;;;;5089680;28;20021;-78
2022/04/13 08:25:38;;;;;;;6.40;2.20;;;15.60;98.70;;;;;;5088899;28;20399;-77
2022/04/13 08:28:04;;;;;;;4.47;2.15;;;15.60;98.30;;;;;;5089766;28;20028;-78
2022/04/13 08:30:29;;;;;;;6.85;2.13;;;15.70;98.00;;;;;;5088935;28;20028;-78
2022/04/13 08:32:55;;;;;;;5.65;2.00;;;15.70;97.90;;;;;;5089248;28;20141;-78
2022/04/13 08:35:21;;;;;;;7.88;2.22;;;15.80;98.10;;;;;;5090047;28;20048;-78
2022/04/13 08:37:46;;;;;;;4.70;2.00;;;15.80;98.00;;;;;;5085318;28;20040;-78
2022/04/13 08:40:12;;;;;;;7.50;2.03;;;15.80;98.00;;;;;;5093836;28;20028;-78
2022/04/13 08:43:04;;;;;;;4.18;2.20;;;15.90;98.30;;;;;;5092766;28;20016;-78
2022/04/13 08:45:35;;;;;;;5.65;1.70;;;15.90;98.30;;;;;;5092732;28;20461;-78
2022/04/13 08:48:04;;;;;;;4.47;1.73;;;15.90;97.80;;;;;;5092253;28;20043;-78
2022/04/13 08:50:31;;;;;;;5.10;1.67;;;16.00;96.80;;;;;;5093792;28;20075;-78
2022/04/13 08:53:04;;;;;;;8.35;1.95;;;16.00;95.50;;;;;;5092322;28;20044;-78
2022/04/13 08:55:31;;;;;;;2.63;1.60;;;16.10;94.30;;;;;;5093327;28;20048;-78
2022/04/13 08:58:36;;;;;;;5.90;1.50;;;16.20;94.20;;;;;;5092338;28;20429;-78
2022/04/13 09:01:06;;;;;;;5.53;1.95;;;16.30;92.50;;;;;;5078506;28;20028;-78
2022/04/13 09:03:43;;;;;;;3.25;1.50;;;16.30;91.50;;;;;;5091624;28;20031;-78
2022/04/13 09:06:10;;;;;;;4.15;1.50;;;16.30;90.20;;;;;;5082953;28;20024;-79
2022/04/13 09:08:52;;;;;;;2.00;1.35;;;16.40;89.10;;;;;;5093017;28;20508;-78
2022/04/13 09:11:22;;;;;;;5.72;1.20;;;16.40;86.50;;;;;;5091994;28;20056;-78
2022/04/13 09:13:49;;;;;;;4.47;1.30;;;16.50;85.70;;;;;;5092008;28;20024;-78
2022/04/13 09:16:16;;;;;;;4.10;1.58;;;16.50;83.80;;;;;;5091463;28;20024;-78
2022/04/13 09:18:45;;;;;;;5.82;1.38;;;16.60;82.40;;;;;;5093140;28;20020;-78
2022/04/13 09:21:17;;;;;;;2.55;1.00;;;16.70;81.20;;;;;;5091445;28;20039;-78
2022/04/13 09:23:43;;;;;;;3.58;1.05;;;16.70;79.30;;;;;;5093691;28;20473;-78
2022/04/13 09:26:10;;;;;;;3.58;1.02;;;16.70;78.50;;;;;;5092753;28;20126;-78
2022/04/13 09:28:37;;;;;;;4.60;1.13;;;16.80;78.10;;;;;;5091718;28;20028;-78
2022/04/13 09:31:03;;;;;;;3.00;1.40;;;16.90;78.40;;;;;;5091174;28;20160;-78
2022/04/13 09:33:29;;;;;;;3.40;0.90;;;16.80;77.60;;;;;;5091942;28;20077;-78
2022/04/13 09:35:55;;;;;;;4.45;1.15;;;16.90;73.80;;;;;;5084337;28;20021;-78
2022/04/13 09:38:21;;;;;;;3.78;1.05;;;17.00;73.80;;;;;;5071677;28;20377;-78
2022/04/13 09:40:51;;;;;;;1.40;0.90;;;17.00;72.30;;;;;;5091717;28;20023;-78
2022/04/13 09:43:19;;;;;;;3.00;1.00;;;17.10;71.70;;;;;;5091283;28;20028;-78
2022/04/13 09:45:46;;;;;;;6.13;1.02;;;17.10;71.60;;;;;;5091541;28;20364;-78
2022/04/13 09:48:14;;;;;;;2.05;0.90;;;17.20;72.10;;;;;;5090773;28;20028;-78
2022/04/13 09:50:41;;;;;;;4.68;0.80;;;17.20;70.50;;;;;;5091035;28;20028;-78
2022/04/13 09:53:09;;;;;;;2.72;0.98;;;17.30;69.80;;;;;;5090681;28;20024;-78
2022/04/13 09:55:39;;;;;;;3.25;1.00;;;17.40;68.80;;;;;;5091104;28;20109;-78
2022/04/13 09:58:13;;;;;;;3.63;0.90;;;17.50;68.30;;;;;;5090918;28;20040;-78
2022/04/13 10:00:40;;;;;;;2.70;1.00;;;17.50;65.70;;;;;;5090869;28;20026;-78
2022/04/13 10:03:09;;;;;;;4.30;1.15;;;17.70;65.00;;;;;;5090528;28;20032;-78
2022/04/13 10:05:35;;;;;;;5.97;1.13;;;17.80;65.50;;;;;;5085689;28;20086;-79
2022/04/13 10:08:05;;;;;;;2.42;0.90;;;17.80;64.40;;;;;;5086869;28;20520;-78
2022/04/13 10:10:31;;;;;;;2.00;0.85;;;17.90;65.40;;;;;;5090864;28;20027;-78
2022/04/13 10:12:57;;;;;;;2.00;0.80;;;17.90;66.30;;;;;;5090784;28;20415;-78
2022/04/13 10:15:23;;;;;;;2.92;1.13;;;17.90;65.30;;;;;;5090630;28;20114;-78
2022/04/13 10:17:49;;;;;;;4.70;1.10;;;18.00;67.10;;;;;;5092127;28;20365;-78
2022/04/13 10:20:15;;;;;;;4.43;1.08;;;18.00;64.50;;;;;;5090548;28;20032;-78
2022/04/13 10:22:59;;;;;;;3.85;0.90;;;18.00;63.80;;;;;;5090953;28;20031;-78
2022/04/13 10:25:27;;;;;;;5.40;1.00;;;18.00;63.70;;;;;;5090034;28;20024;-79
2022/04/13 10:28:00;;;;;;;3.92;1.13;;;18.10;66.30;;;;;;5092144;28;20040;-78
2022/04/13 10:30:34;;;;;;;7.93;1.00;;;18.10;65.40;;;;;;5091283;28;20024;-78
2022/04/13 10:33:02;;;;;;;3.58;1.05;;;18.20;65.20;;;;;;5090881;28;20044;-78
2022/04/13 10:35:29;;;;;;;4.75;1.10;;;18.30;68.30;;;;;;5085520;28;20579;-78
2022/04/13 10:37:55;;;;;;;3.95;1.17;;;18.30;68.70;;;;;;5084331;28;20148;-78
2022/04/13 10:40:25;;;;;;;1.98;0.85;;;18.30;68.60;;;;;;5090085;28;20024;-78
2022/04/13 10:42:52;;;;;;;5.95;1.02;;;18.30;66.90;;;;;;5091760;28;20084;-78
2022/04/13 10:45:19;;;;;;;4.82;0.77;;;18.30;66.60;;;;;;5090046;28;20496;-79
2022/04/13 10:48:03;;;;;;;3.72;1.00;;;18.40;64.90;;;;;;5092183;28;20035;-79
2022/04/13 10:50:47;;;;;;;2.03;0.80;;;18.50;64.70;;;;;;5090284;28;20480;-78
2022/04/13 10:53:46;;;;;;;2.75;0.95;;;18.50;66.10;;;;;;5090944;28;20047;-78
2022/04/13 10:56:12;;;;;;;6.20;1.00;;;18.60;64.10;;;;;;5076122;28;20059;-78
2022/04/13 10:58:50;;;;;;;2.78;1.08;;;18.60;65.50;;;;;;5091025;28;20024;-79
2022/04/13 11:01:18;;;;;;;3.35;0.98;;;18.70;65.60;;;;;;5089657;28;20149;-78
2022/04/13 11:03:46;;;;;;;3.08;0.82;;;18.70;64.30;;;;;;5091035;28;20024;-79
2022/04/13 11:06:13;;;;;;;4.30;0.90;;;18.90;66.20;;;;;;5089513;28;20027;-78
2022/04/13 11:09:08;;;;;;;2.28;0.80;;;18.90;64.70;;;;;;5091725;28;20016;-78
2022/04/13 11:11:35;;;;;;;4.53;1.00;;;19.00;62.90;;;;;;5090142;28;20456;-78
2022/04/13 11:14:15;;;;;;;2.45;1.30;;;19.00;61.70;;;;;;5090866;28;20119;-78
2022/04/13 11:16:40;;;;;;;3.35;1.00;;;19.10;61.50;;;;;;5073125;28;20469;-78
2022/04/13 11:19:06;;;;;;;4.32;1.05;;;19.20;61.60;;;;;;5089205;28;20039;-79
2022/04/13 11:21:33;;;;;;;5.65;1.15;;;19.30;62.70;;;;;;5091193;28;20028;-78
2022/04/13 11:23:59;;;;;;;4.15;1.17;;;19.30;62.10;;;;;;5091073;28;20020;-78
2022/04/13 11:26:48;;;;;;;7.35;1.20;;;19.30;61.50;;;;;;5088613;28;20032;-78
2022/04/13 11:29:16;;;;;;;4.00;1.30;;;19.40;61.90;;;;;;5090221;28;20028;-78
2022/04/13 11:32:00;;;;;;;6.30;0.95;;;19.60;60.60;;;;;;5090943;28;20447;-79
2022/04/13 11:34:41;;;;;;;5.82;0.98;;;19.60;60.20;;;;;;5088895;28;20016;-78
2022/04/13 11:37:09;;;;;;;4.88;0.90;;;19.70;60.70;;;;;;5077824;28;20039;-78
2022/04/13 11:39:57;;;;;;;4.53;1.00;;;19.80;61.20;;;;;;5089630;28;20135;-78
2022/04/13 11:42:24;;;;;;;3.75;1.17;;;19.80;58.70;;;;;;5089212;28;20027;-79
2022/04/13 11:45:00;;;;;;;4.60;1.08;;;20.00;58.90;;;;;;5089348;28;20023;-78
2022/04/13 11:47:39;;;;;;;4.63;1.02;;;20.10;57.60;;;;;;5088770;28;20110;-79
2022/04/13 11:50:18;;;;;;;3.33;1.08;;;20.10;59.10;;;;;;5089397;28;20381;-79
2022/04/13 11:52:50;;;;;;;5.22;1.15;;;20.10;59.40;;;;;;5074805;28;20024;-78
2022/04/13 11:55:53;;;;;;;4.72;0.98;;;20.30;60.10;;;;;;5088139;28;20047;-78
2022/04/13 11:58:21;;;;;;;7.15;0.90;;;20.30;58.70;;;;;;5079169;28;20048;-79
2022/04/13 12:00:58;;;;;;;4.60;0.85;;;20.40;57.50;;;;;;5090891;28;20012;-79
2022/04/13 12:03:34;;;;;;;5.18;1.33;;;20.50;57.50;;;;;;5088666;28;20020;-79
2022/04/13 12:06:19;;;;;;;11.38;6.20;;;20.60;57.90;;;;;;5080282;28;20052;-79
2022/04/13 12:09:03;;;;;;;4.55;1.92;;;20.80;55.50;;;;;;5073126;28;20020;-78
2022/04/13 12:11:45;;;;;;;4.22;1.98;;;21.00;56.60;;;;;;5088527;28;20081;-78
2022/04/13 12:14:12;;;;;;;;;;;21.10;56.30;;;;;;5088784;28;20560;-79
2022/04/13 12:16:41;;;;;;;6.82;1.60;;;21.20;55.00;;;;;;5088807;28;20368;-79
2022/04/13 12:19:09;;;;;;;2.92;1.08;;;21.30;55.90;;;;;;5090372;28;20028;-79
2022/04/13 12:21:40;;;;;;;7.95;1.50;;;21.50;54.50;;;;;;5089059;28;20024;-79
2022/04/13 12:24:12;;;;;;;6.07;1.30;;;21.60;52.80;;;;;;5089911;28;20020;-79
2022/04/13 12:26:41;;;;;;;5.38;1.38;;;21.80;53.70;;;;;;5088701;28;20316;-79
2022/04/13 12:29:18;;;;;;;6.93;1.23;;;22.00;53.30;;;;;;5088520;28;20057;-79
2022/04/13 12:31:54;;;;;;;4.53;1.23;;;22.10;53.50;;;;;;5088716;28;20058;-79
2022/04/13 12:34:24;;;;;;;5.50;1.15;;;22.30;53.70;;;;;;5089409;28;20081;-79
2022/04/13 12:36:51;;;;;;;3.37;0.90;;;22.50;52.50;;;;;;5077596;28;20123;-79
2022/04/13 12:39:17;;;;;;;6.10;1.30;;;22.60;52.10;;;;;;5088155;28;20065;-79
2022/04/13 12:41:42;;;;;;;2.50;0.93;;;22.70;52.60;;;;;;5088521;28;20028;-79
2022/04/13 12:44:08;;;;;;;3.25;1.02;;;22.90;52.20;;;;;;5089968;28;20035;-79
2022/04/13 12:46:34;;;;;;;5.45;1.20;;;23.00;52.20;;;;;;5089113;28;20031;-79
2022/04/13 12:49:05;;;;;;;3.85;1.05;;;23.20;53.10;;;;;;5088408;28;20034;-80